sensor_id;sensor_type;location;lat;lon;timestamp;P1;durP1;ratioP1;P2;durP2;ratioP2
33076;SDS011;67066;51.964;5.924;2024-03-08T00:00:08;50.13;;;23.52;;
33076;SDS011;67066;51.964;5.924;2024-03-08T00:02:40;37.88;;;20.02;;
33076;SDS011;67066;51.964;5.924;2024-03-08T00:05:07;43.30;;;22.30;;
33076;SDS011;67066;51.964;5.924;2024-03-08T00:07:35;45.65;;;21.00;;
33076;SDS011;67066;51.964;5.924;2024-03-08T00:10:02;42.25;;;20.70;;
33076;SDS011;67066;51.964;5.924;2024-03-08T00:12:29;49.22;;;23.00;;
33076;SDS011;67066;51.964;5.924;2024-03-08T00:14:56;48.58;;;22.38;;
33076;SDS011;67066;51.964;5.924;2024-03-08T00:17:22;42.45;;;21.92;;
33076;SDS011;67066;51.964;5.924;2024-03-08T00:19:48;41.38;;;21.40;;
33076;SDS011;67066;51.964;5.924;2024-03-08T00:22:18;51.80;;;21.85;;
33076;SDS011;67066;51.964;5.924;2024-03-08T00:24:44;46.83;;;22.10;;
33076;SDS011;67066;51.964;5.924;2024-03-08T00:27:10;45.17;;;22.65;;
33076;SDS011;67066;51.964;5.924;2024-03-08T00:29:37;48.42;;;22.45;;
33076;SDS011;67066;51.964;5.924;2024-03-08T00:32:04;48.80;;;22.30;;
33076;SDS011;67066;51.964;5.924;2024-03-08T00:34:30;46.17;;;21.75;;
33076;SDS011;67066;51.964;5.924;2024-03-08T00:36:57;44.47;;;20.25;;
33076;SDS011;67066;51.964;5.924;2024-03-08T00:39:24;37.65;;;20.33;;
33076;SDS011;67066;51.964;5.924;2024-03-08T00:41:51;46.28;;;21.25;;
33076;SDS011;67066;51.964;5.924;2024-03-08T00:44:17;43.90;;;22.00;;
33076;SDS011;67066;51.964;5.924;2024-03-08T00:46:43;40.78;;;21.10;;
33076;SDS011;67066;51.964;5.924;2024-03-08T00:49:09;50.00;;;20.73;;
33076;SDS011;67066;51.964;5.924;2024-03-08T00:51:35;47.45;;;21.90;;
33076;SDS011;67066;51.964;5.924;2024-03-08T00:54:01;39.40;;;20.05;;
33076;SDS011;67066;51.964;5.924;2024-03-08T00:56:27;50.88;;;21.17;;
33076;SDS011;67066;51.964;5.924;2024-03-08T00:58:53;39.95;;;22.35;;
33076;SDS011;67066;51.964;5.924;2024-03-08T01:01:19;44.20;;;21.65;;
33076;SDS011;67066;51.964;5.924;2024-03-08T01:03:45;45.80;;;21.35;;
33076;SDS011;67066;51.964;5.924;2024-03-08T01:06:11;51.05;;;24.20;;
33076;SDS011;67066;51.964;5.924;2024-03-08T01:08:38;38.78;;;21.13;;
33076;SDS011;67066;51.964;5.924;2024-03-08T01:11:06;40.90;;;20.05;;
33076;SDS011;67066;51.964;5.924;2024-03-08T01:13:32;44.53;;;22.10;;
33076;SDS011;67066;51.964;5.924;2024-03-08T01:15:58;40.53;;;20.30;;
33076;SDS011;67066;51.964;5.924;2024-03-08T01:18:24;39.90;;;21.73;;
33076;SDS011;67066;51.964;5.924;2024-03-08T01:20:50;40.78;;;21.50;;
33076;SDS011;67066;51.964;5.924;2024-03-08T01:23:16;43.63;;;21.25;;
33076;SDS011;67066;51.964;5.924;2024-03-08T01:25:43;42.67;;;21.50;;
33076;SDS011;67066;51.964;5.924;2024-03-08T01:28:09;44.60;;;22.13;;
33076;SDS011;67066;51.964;5.924;2024-03-08T01:30:35;47.50;;;20.52;;
33076;SDS011;67066;51.964;5.924;2024-03-08T01:33:02;41.85;;;21.52;;
33076;SDS011;67066;51.964;5.924;2024-03-08T01:35:29;45.17;;;22.02;;
33076;SDS011;67066;51.964;5.924;2024-03-08T01:37:55;43.38;;;22.02;;
33076;SDS011;67066;51.964;5.924;2024-03-08T01:40:21;42.00;;;21.67;;
33076;SDS011;67066;51.964;5.924;2024-03-08T01:42:48;42.95;;;21.77;;
33076;SDS011;67066;51.964;5.924;2024-03-08T01:45:14;39.50;;;19.55;;
33076;SDS011;67066;51.964;5.924;2024-03-08T01:47:40;39.80;;;22.20;;
33076;SDS011;67066;51.964;5.924;2024-03-08T01:50:06;41.17;;;21.20;;
33076;SDS011;67066;51.964;5.924;2024-03-08T01:52:34;40.97;;;20.73;;
33076;SDS011;67066;51.964;5.924;2024-03-08T01:55:01;38.05;;;20.23;;
33076;SDS011;67066;51.964;5.924;2024-03-08T01:57:34;45.28;;;22.25;;
33076;SDS011;67066;51.964;5.924;2024-03-08T02:00:01;44.50;;;20.38;;
33076;SDS011;67066;51.964;5.924;2024-03-08T02:02:30;46.05;;;23.33;;
33076;SDS011;67066;51.964;5.924;2024-03-08T02:04:58;34.45;;;20.13;;
33076;SDS011;67066;51.964;5.924;2024-03-08T02:07:25;39.13;;;19.90;;
33076;SDS011;67066;51.964;5.924;2024-03-08T02:09:51;34.22;;;20.20;;
33076;SDS011;67066;51.964;5.924;2024-03-08T02:12:18;49.42;;;22.65;;
33076;SDS011;67066;51.964;5.924;2024-03-08T02:14:46;45.97;;;22.83;;
33076;SDS011;67066;51.964;5.924;2024-03-08T02:17:12;47.38;;;22.98;;
33076;SDS011;67066;51.964;5.924;2024-03-08T02:19:38;50.35;;;22.52;;
33076;SDS011;67066;51.964;5.924;2024-03-08T02:22:05;45.10;;;22.77;;
33076;SDS011;67066;51.964;5.924;2024-03-08T02:24:32;46.38;;;22.52;;
33076;SDS011;67066;51.964;5.924;2024-03-08T02:26:59;37.20;;;20.25;;
33076;SDS011;67066;51.964;5.924;2024-03-08T02:29:25;43.90;;;22.00;;
33076;SDS011;67066;51.964;5.924;2024-03-08T02:31:51;48.88;;;23.48;;
33076;SDS011;67066;51.964;5.924;2024-03-08T02:34:18;36.35;;;21.20;;
33076;SDS011;67066;51.964;5.924;2024-03-08T02:36:44;40.78;;;21.73;;
33076;SDS011;67066;51.964;5.924;2024-03-08T02:39:10;39.67;;;22.05;;
33076;SDS011;67066;51.964;5.924;2024-03-08T02:41:36;42.38;;;22.58;;
33076;SDS011;67066;51.964;5.924;2024-03-08T02:44:02;51.95;;;22.90;;
33076;SDS011;67066;51.964;5.924;2024-03-08T02:46:29;41.90;;;22.52;;
33076;SDS011;67066;51.964;5.924;2024-03-08T02:48:56;46.95;;;23.08;;
33076;SDS011;67066;51.964;5.924;2024-03-08T02:51:22;38.10;;;21.50;;
33076;SDS011;67066;51.964;5.924;2024-03-08T02:53:48;44.40;;;23.40;;
33076;SDS011;67066;51.964;5.924;2024-03-08T02:56:14;43.35;;;22.45;;
33076;SDS011;67066;51.964;5.924;2024-03-08T02:58:42;39.83;;;20.98;;
33076;SDS011;67066;51.964;5.924;2024-03-08T03:01:09;40.97;;;21.98;;
33076;SDS011;67066;51.964;5.924;2024-03-08T03:03:35;40.72;;;21.42;;
33076;SDS011;67066;51.964;5.924;2024-03-08T03:06:02;37.28;;;20.25;;
33076;SDS011;67066;51.964;5.924;2024-03-08T03:08:28;42.28;;;21.30;;
33076;SDS011;67066;51.964;5.924;2024-03-08T03:10:54;42.65;;;22.27;;
33076;SDS011;67066;51.964;5.924;2024-03-08T03:13:22;45.97;;;24.42;;
33076;SDS011;67066;51.964;5.924;2024-03-08T03:15:48;44.60;;;23.00;;
33076;SDS011;67066;51.964;5.924;2024-03-08T03:18:14;44.70;;;22.65;;
33076;SDS011;67066;51.964;5.924;2024-03-08T03:20:41;43.58;;;23.58;;
33076;SDS011;67066;51.964;5.924;2024-03-08T03:23:08;43.33;;;23.80;;
33076;SDS011;67066;51.964;5.924;2024-03-08T03:25:35;39.65;;;20.10;;
33076;SDS011;67066;51.964;5.924;2024-03-08T03:28:01;54.60;;;25.23;;
33076;SDS011;67066;51.964;5.924;2024-03-08T03:30:28;45.42;;;23.05;;
33076;SDS011;67066;51.964;5.924;2024-03-08T03:33:01;53.95;;;23.80;;
33076;SDS011;67066;51.964;5.924;2024-03-08T03:35:32;46.95;;;22.13;;
33076;SDS011;67066;51.964;5.924;2024-03-08T03:37:59;45.55;;;23.05;;
33076;SDS011;67066;51.964;5.924;2024-03-08T03:40:34;50.53;;;22.98;;
33076;SDS011;67066;51.964;5.924;2024-03-08T03:43:08;51.42;;;24.02;;
33076;SDS011;67066;51.964;5.924;2024-03-08T03:45:35;42.38;;;22.92;;
33076;SDS011;67066;51.964;5.924;2024-03-08T03:48:02;42.05;;;24.42;;
33076;SDS011;67066;51.964;5.924;2024-03-08T03:50:28;44.58;;;22.95;;
33076;SDS011;67066;51.964;5.924;2024-03-08T03:52:54;39.45;;;22.67;;
33076;SDS011;67066;51.964;5.924;2024-03-08T03:55:21;41.13;;;21.67;;
33076;SDS011;67066;51.964;5.924;2024-03-08T03:57:47;42.08;;;22.90;;
33076;SDS011;67066;51.964;5.924;2024-03-08T04:00:13;43.33;;;23.02;;
33076;SDS011;67066;51.964;5.924;2024-03-08T04:02:39;48.33;;;22.60;;
33076;SDS011;67066;51.964;5.924;2024-03-08T04:05:09;45.05;;;24.10;;
33076;SDS011;67066;51.964;5.924;2024-03-08T04:07:37;42.08;;;20.80;;
33076;SDS011;67066;51.964;5.924;2024-03-08T04:10:04;40.58;;;23.05;;
33076;SDS011;67066;51.964;5.924;2024-03-08T04:12:34;43.30;;;23.20;;
33076;SDS011;67066;51.964;5.924;2024-03-08T04:15:01;40.67;;;21.20;;
33076;SDS011;67066;51.964;5.924;2024-03-08T04:17:27;41.17;;;23.25;;
33076;SDS011;67066;51.964;5.924;2024-03-08T04:19:54;49.03;;;23.05;;
33076;SDS011;67066;51.964;5.924;2024-03-08T04:22:20;50.33;;;24.88;;
33076;SDS011;67066;51.964;5.924;2024-03-08T04:24:46;40.40;;;23.45;;
33076;SDS011;67066;51.964;5.924;2024-03-08T04:27:13;39.70;;;23.27;;
33076;SDS011;67066;51.964;5.924;2024-03-08T04:29:42;46.13;;;23.77;;
33076;SDS011;67066;51.964;5.924;2024-03-08T04:32:08;44.78;;;23.88;;
33076;SDS011;67066;51.964;5.924;2024-03-08T04:34:35;44.83;;;23.45;;
33076;SDS011;67066;51.964;5.924;2024-03-08T04:37:01;46.67;;;23.67;;
33076;SDS011;67066;51.964;5.924;2024-03-08T04:39:28;44.70;;;22.98;;
33076;SDS011;67066;51.964;5.924;2024-03-08T04:41:58;44.13;;;23.92;;
33076;SDS011;67066;51.964;5.924;2024-03-08T04:44:26;42.00;;;22.10;;
33076;SDS011;67066;51.964;5.924;2024-03-08T04:46:52;45.95;;;24.35;;
33076;SDS011;67066;51.964;5.924;2024-03-08T04:49:18;45.60;;;24.35;;
33076;SDS011;67066;51.964;5.924;2024-03-08T04:51:44;44.65;;;23.48;;
33076;SDS011;67066;51.964;5.924;2024-03-08T04:54:10;51.53;;;24.55;;
33076;SDS011;67066;51.964;5.924;2024-03-08T04:56:36;48.85;;;23.73;;
33076;SDS011;67066;51.964;5.924;2024-03-08T04:59:02;52.55;;;27.00;;
33076;SDS011;67066;51.964;5.924;2024-03-08T05:01:28;39.05;;;21.52;;
33076;SDS011;67066;51.964;5.924;2024-03-08T05:03:54;50.13;;;24.83;;
33076;SDS011;67066;51.964;5.924;2024-03-08T05:06:20;41.20;;;23.48;;
33076;SDS011;67066;51.964;5.924;2024-03-08T05:08:47;51.95;;;26.02;;
33076;SDS011;67066;51.964;5.924;2024-03-08T05:11:13;44.58;;;23.15;;
33076;SDS011;67066;51.964;5.924;2024-03-08T05:13:40;49.67;;;26.45;;
33076;SDS011;67066;51.964;5.924;2024-03-08T05:16:06;46.67;;;26.05;;
33076;SDS011;67066;51.964;5.924;2024-03-08T05:18:33;46.83;;;25.27;;
33076;SDS011;67066;51.964;5.924;2024-03-08T05:21:01;46.95;;;24.85;;
33076;SDS011;67066;51.964;5.924;2024-03-08T05:23:29;45.92;;;24.40;;
33076;SDS011;67066;51.964;5.924;2024-03-08T05:25:56;44.42;;;24.38;;
33076;SDS011;67066;51.964;5.924;2024-03-08T05:28:22;47.17;;;25.08;;
33076;SDS011;67066;51.964;5.924;2024-03-08T05:30:49;56.03;;;25.70;;
33076;SDS011;67066;51.964;5.924;2024-03-08T05:33:15;45.25;;;24.48;;
33076;SDS011;67066;51.964;5.924;2024-03-08T05:35:41;45.42;;;20.85;;
33076;SDS011;67066;51.964;5.924;2024-03-08T05:38:07;47.08;;;23.80;;
33076;SDS011;67066;51.964;5.924;2024-03-08T05:40:33;48.85;;;23.73;;
33076;SDS011;67066;51.964;5.924;2024-03-08T05:42:59;49.42;;;23.33;;
33076;SDS011;67066;51.964;5.924;2024-03-08T05:45:25;55.72;;;26.08;;
33076;SDS011;67066;51.964;5.924;2024-03-08T05:47:51;47.15;;;23.63;;
33076;SDS011;67066;51.964;5.924;2024-03-08T05:50:18;48.17;;;24.45;;
33076;SDS011;67066;51.964;5.924;2024-03-08T05:52:45;45.35;;;24.30;;
33076;SDS011;67066;51.964;5.924;2024-03-08T05:55:11;50.60;;;25.08;;
33076;SDS011;67066;51.964;5.924;2024-03-08T05:57:40;51.30;;;24.40;;
33076;SDS011;67066;51.964;5.924;2024-03-08T06:00:08;46.05;;;24.13;;
33076;SDS011;67066;51.964;5.924;2024-03-08T06:02:38;52.42;;;23.98;;
33076;SDS011;67066;51.964;5.924;2024-03-08T06:05:09;46.00;;;24.33;;
33076;SDS011;67066;51.964;5.924;2024-03-08T06:07:36;44.67;;;23.20;;
33076;SDS011;67066;51.964;5.924;2024-03-08T06:10:09;48.03;;;24.70;;
33076;SDS011;67066;51.964;5.924;2024-03-08T06:12:36;43.70;;;23.27;;
33076;SDS011;67066;51.964;5.924;2024-03-08T06:15:08;51.25;;;25.00;;
33076;SDS011;67066;51.964;5.924;2024-03-08T06:17:36;49.67;;;23.63;;
33076;SDS011;67066;51.964;5.924;2024-03-08T06:20:02;51.58;;;24.48;;
33076;SDS011;67066;51.964;5.924;2024-03-08T06:22:41;55.85;;;23.20;;
33076;SDS011;67066;51.964;5.924;2024-03-08T06:25:08;49.00;;;25.00;;
33076;SDS011;67066;51.964;5.924;2024-03-08T06:27:36;51.83;;;24.05;;
33076;SDS011;67066;51.964;5.924;2024-03-08T06:30:02;45.78;;;25.25;;
33076;SDS011;67066;51.964;5.924;2024-03-08T06:32:30;52.85;;;25.08;;
33076;SDS011;67066;51.964;5.924;2024-03-08T06:34:58;48.33;;;24.48;;
33076;SDS011;67066;51.964;5.924;2024-03-08T06:37:25;49.03;;;25.25;;
33076;SDS011;67066;51.964;5.924;2024-03-08T06:39:51;47.67;;;26.40;;
33076;SDS011;67066;51.964;5.924;2024-03-08T06:42:17;51.00;;;25.40;;
33076;SDS011;67066;51.964;5.924;2024-03-08T06:44:43;48.38;;;24.67;;
33076;SDS011;67066;51.964;5.924;2024-03-08T06:47:15;49.90;;;27.08;;
33076;SDS011;67066;51.964;5.924;2024-03-08T06:49:42;58.00;;;27.00;;
33076;SDS011;67066;51.964;5.924;2024-03-08T06:52:11;47.08;;;25.00;;
33076;SDS011;67066;51.964;5.924;2024-03-08T06:54:37;43.83;;;23.33;;
33076;SDS011;67066;51.964;5.924;2024-03-08T06:57:04;50.53;;;25.02;;
33076;SDS011;67066;51.964;5.924;2024-03-08T06:59:30;47.08;;;24.02;;
33076;SDS011;67066;51.964;5.924;2024-03-08T07:01:57;48.53;;;25.90;;
33076;SDS011;67066;51.964;5.924;2024-03-08T07:04:25;53.05;;;25.85;;
33076;SDS011;67066;51.964;5.924;2024-03-08T07:06:58;44.83;;;24.48;;
33076;SDS011;67066;51.964;5.924;2024-03-08T07:09:24;43.53;;;24.52;;
33076;SDS011;67066;51.964;5.924;2024-03-08T07:11:50;44.45;;;24.02;;
33076;SDS011;67066;51.964;5.924;2024-03-08T07:14:23;53.90;;;26.90;;
33076;SDS011;67066;51.964;5.924;2024-03-08T07:16:49;48.92;;;23.83;;
33076;SDS011;67066;51.964;5.924;2024-03-08T07:19:16;55.95;;;27.15;;
33076;SDS011;67066;51.964;5.924;2024-03-08T07:21:43;52.90;;;24.02;;
33076;SDS011;67066;51.964;5.924;2024-03-08T07:24:10;53.70;;;27.70;;
33076;SDS011;67066;51.964;5.924;2024-03-08T07:26:59;40.92;;;24.67;;
33076;SDS011;67066;51.964;5.924;2024-03-08T07:29:25;52.40;;;27.98;;
33076;SDS011;67066;51.964;5.924;2024-03-08T07:31:51;49.67;;;27.52;;
33076;SDS011;67066;51.964;5.924;2024-03-08T07:34:27;59.50;;;27.33;;
33076;SDS011;67066;51.964;5.924;2024-03-08T07:36:57;51.53;;;27.35;;
33076;SDS011;67066;51.964;5.924;2024-03-08T07:39:24;47.58;;;25.30;;
33076;SDS011;67066;51.964;5.924;2024-03-08T07:41:50;59.47;;;29.30;;
33076;SDS011;67066;51.964;5.924;2024-03-08T07:44:20;47.28;;;25.75;;
33076;SDS011;67066;51.964;5.924;2024-03-08T07:46:46;47.47;;;24.85;;
33076;SDS011;67066;51.964;5.924;2024-03-08T07:49:13;51.38;;;27.80;;
33076;SDS011;67066;51.964;5.924;2024-03-08T07:51:40;42.08;;;22.52;;
33076;SDS011;67066;51.964;5.924;2024-03-08T07:54:07;50.50;;;27.25;;
33076;SDS011;67066;51.964;5.924;2024-03-08T07:56:34;39.25;;;23.60;;
33076;SDS011;67066;51.964;5.924;2024-03-08T07:59:02;48.80;;;25.30;;
33076;SDS011;67066;51.964;5.924;2024-03-08T08:01:29;52.85;;;25.95;;
33076;SDS011;67066;51.964;5.924;2024-03-08T08:03:59;48.30;;;26.33;;
33076;SDS011;67066;51.964;5.924;2024-03-08T08:06:27;53.67;;;26.60;;
33076;SDS011;67066;51.964;5.924;2024-03-08T08:08:53;52.28;;;27.15;;
33076;SDS011;67066;51.964;5.924;2024-03-08T08:11:20;49.28;;;25.05;;
33076;SDS011;67066;51.964;5.924;2024-03-08T08:13:46;51.72;;;27.85;;
33076;SDS011;67066;51.964;5.924;2024-03-08T08:16:12;54.67;;;26.98;;
33076;SDS011;67066;51.964;5.924;2024-03-08T08:18:38;42.97;;;25.48;;
33076;SDS011;67066;51.964;5.924;2024-03-08T08:21:05;50.17;;;26.70;;
33076;SDS011;67066;51.964;5.924;2024-03-08T08:23:35;56.30;;;27.70;;
33076;SDS011;67066;51.964;5.924;2024-03-08T08:26:01;50.83;;;26.77;;
33076;SDS011;67066;51.964;5.924;2024-03-08T08:28:30;54.50;;;27.27;;
33076;SDS011;67066;51.964;5.924;2024-03-08T08:30:56;51.10;;;26.52;;
33076;SDS011;67066;51.964;5.924;2024-03-08T08:33:22;46.65;;;26.02;;
33076;SDS011;67066;51.964;5.924;2024-03-08T08:35:51;43.75;;;24.63;;
33076;SDS011;67066;51.964;5.924;2024-03-08T08:38:19;50.40;;;24.65;;
33076;SDS011;67066;51.964;5.924;2024-03-08T08:40:45;51.55;;;26.65;;
33076;SDS011;67066;51.964;5.924;2024-03-08T08:43:12;49.67;;;26.10;;
33076;SDS011;67066;51.964;5.924;2024-03-08T08:45:39;46.15;;;26.15;;
33076;SDS011;67066;51.964;5.924;2024-03-08T08:48:06;42.88;;;25.10;;
33076;SDS011;67066;51.964;5.924;2024-03-08T08:50:32;52.20;;;26.95;;
33076;SDS011;67066;51.964;5.924;2024-03-08T08:52:58;47.08;;;24.90;;
33076;SDS011;67066;51.964;5.924;2024-03-08T08:55:24;56.85;;;25.15;;
33076;SDS011;67066;51.964;5.924;2024-03-08T08:57:51;51.33;;;24.92;;
33076;SDS011;67066;51.964;5.924;2024-03-08T09:00:18;41.88;;;22.92;;
33076;SDS011;67066;51.964;5.924;2024-03-08T09:02:46;50.40;;;25.00;;
33076;SDS011;67066;51.964;5.924;2024-03-08T09:05:13;43.20;;;23.90;;
33076;SDS011;67066;51.964;5.924;2024-03-08T09:07:43;47.95;;;26.23;;
33076;SDS011;67066;51.964;5.924;2024-03-08T09:10:12;42.00;;;23.38;;
33076;SDS011;67066;51.964;5.924;2024-03-08T09:12:40;46.20;;;24.15;;
33076;SDS011;67066;51.964;5.924;2024-03-08T09:15:06;44.80;;;24.13;;
33076;SDS011;67066;51.964;5.924;2024-03-08T09:17:37;48.50;;;24.88;;
33076;SDS011;67066;51.964;5.924;2024-03-08T09:20:06;49.90;;;27.33;;
33076;SDS011;67066;51.964;5.924;2024-03-08T09:22:33;59.55;;;30.45;;
33076;SDS011;67066;51.964;5.924;2024-03-08T09:24:59;56.17;;;31.88;;
33076;SDS011;67066;51.964;5.924;2024-03-08T09:27:25;55.88;;;27.73;;
33076;SDS011;67066;51.964;5.924;2024-03-08T09:29:51;49.65;;;27.40;;
33076;SDS011;67066;51.964;5.924;2024-03-08T09:32:17;43.50;;;26.85;;
33076;SDS011;67066;51.964;5.924;2024-03-08T09:34:43;48.25;;;26.38;;
33076;SDS011;67066;51.964;5.924;2024-03-08T09:37:09;48.80;;;26.40;;
33076;SDS011;67066;51.964;5.924;2024-03-08T09:39:36;46.10;;;25.42;;
33076;SDS011;67066;51.964;5.924;2024-03-08T09:42:02;39.65;;;22.38;;
33076;SDS011;67066;51.964;5.924;2024-03-08T09:44:29;40.10;;;25.38;;
33076;SDS011;67066;51.964;5.924;2024-03-08T09:46:55;46.03;;;24.80;;
33076;SDS011;67066;51.964;5.924;2024-03-08T09:49:21;48.67;;;24.45;;
33076;SDS011;67066;51.964;5.924;2024-03-08T09:51:47;38.10;;;21.65;;
33076;SDS011;67066;51.964;5.924;2024-03-08T09:54:15;43.67;;;22.30;;
33076;SDS011;67066;51.964;5.924;2024-03-08T09:56:42;48.40;;;24.10;;
33076;SDS011;67066;51.964;5.924;2024-03-08T09:59:10;36.88;;;21.17;;
33076;SDS011;67066;51.964;5.924;2024-03-08T10:01:48;49.85;;;22.00;;
33076;SDS011;67066;51.964;5.924;2024-03-08T10:04:14;43.45;;;23.58;;
33076;SDS011;67066;51.964;5.924;2024-03-08T10:06:44;45.92;;;25.30;;
33076;SDS011;67066;51.964;5.924;2024-03-08T10:09:12;47.95;;;24.58;;
33076;SDS011;67066;51.964;5.924;2024-03-08T10:11:39;38.30;;;21.75;;
33076;SDS011;67066;51.964;5.924;2024-03-08T10:14:07;36.50;;;22.00;;
33076;SDS011;67066;51.964;5.924;2024-03-08T10:16:34;43.78;;;21.83;;
33076;SDS011;67066;51.964;5.924;2024-03-08T10:19:00;44.35;;;22.15;;
33076;SDS011;67066;51.964;5.924;2024-03-08T10:21:26;39.58;;;19.98;;
33076;SDS011;67066;51.964;5.924;2024-03-08T10:23:52;36.35;;;22.80;;
33076;SDS011;67066;51.964;5.924;2024-03-08T10:26:19;44.05;;;22.33;;
33076;SDS011;67066;51.964;5.924;2024-03-08T10:28:47;38.67;;;19.92;;
33076;SDS011;67066;51.964;5.924;2024-03-08T10:31:14;41.28;;;20.95;;
33076;SDS011;67066;51.964;5.924;2024-03-08T10:33:41;41.92;;;19.63;;
33076;SDS011;67066;51.964;5.924;2024-03-08T10:36:08;33.60;;;21.00;;
33076;SDS011;67066;51.964;5.924;2024-03-08T10:38:38;40.15;;;21.80;;
33076;SDS011;67066;51.964;5.924;2024-03-08T10:41:07;41.20;;;21.95;;
33076;SDS011;67066;51.964;5.924;2024-03-08T10:43:47;44.25;;;21.73;;
33076;SDS011;67066;51.964;5.924;2024-03-08T10:48:53;34.38;;;21.15;;
33076;SDS011;67066;51.964;5.924;2024-03-08T10:51:24;35.67;;;22.90;;
33076;SDS011;67066;51.964;5.924;2024-03-08T10:53:51;36.13;;;20.25;;
33076;SDS011;67066;51.964;5.924;2024-03-08T10:56:19;41.85;;;21.70;;
33076;SDS011;67066;51.964;5.924;2024-03-08T10:58:45;36.60;;;21.38;;
33076;SDS011;67066;51.964;5.924;2024-03-08T11:01:12;34.08;;;21.20;;
33076;SDS011;67066;51.964;5.924;2024-03-08T11:11:33;36.67;;;20.90;;
33076;SDS011;67066;51.964;5.924;2024-03-08T11:14:00;33.33;;;18.35;;
33076;SDS011;67066;51.964;5.924;2024-03-08T11:18:54;40.30;;;20.08;;
33076;SDS011;67066;51.964;5.924;2024-03-08T11:21:30;36.05;;;20.13;;
33076;SDS011;67066;51.964;5.924;2024-03-08T11:24:06;30.20;;;18.90;;
33076;SDS011;67066;51.964;5.924;2024-03-08T11:26:33;28.60;;;17.42;;
33076;SDS011;67066;51.964;5.924;2024-03-08T11:32:21;31.33;;;18.55;;
33076;SDS011;67066;51.964;5.924;2024-03-08T11:34:47;36.30;;;19.25;;
33076;SDS011;67066;51.964;5.924;2024-03-08T11:37:16;41.60;;;20.90;;
33076;SDS011;67066;51.964;5.924;2024-03-08T11:39:50;29.40;;;16.83;;
33076;SDS011;67066;51.964;5.924;2024-03-08T11:42:18;25.83;;;15.20;;
33076;SDS011;67066;51.964;5.924;2024-03-08T11:44:48;33.85;;;18.88;;
33076;SDS011;67066;51.964;5.924;2024-03-08T11:47:16;25.52;;;15.45;;
33076;SDS011;67066;51.964;5.924;2024-03-08T11:49:42;25.75;;;16.45;;
33076;SDS011;67066;51.964;5.924;2024-03-08T11:52:13;27.40;;;14.27;;
33076;SDS011;67066;51.964;5.924;2024-03-08T11:54:40;25.73;;;16.15;;
33076;SDS011;67066;51.964;5.924;2024-03-08T11:57:08;21.88;;;12.93;;
33076;SDS011;67066;51.964;5.924;2024-03-08T11:59:38;23.13;;;13.27;;
33076;SDS011;67066;51.964;5.924;2024-03-08T12:02:04;28.80;;;17.80;;
33076;SDS011;67066;51.964;5.924;2024-03-08T12:04:31;30.02;;;15.52;;
33076;SDS011;67066;51.964;5.924;2024-03-08T12:07:01;24.25;;;16.20;;
33076;SDS011;67066;51.964;5.924;2024-03-08T12:09:28;27.13;;;15.25;;
33076;SDS011;67066;51.964;5.924;2024-03-08T12:11:54;31.98;;;16.92;;
33076;SDS011;67066;51.964;5.924;2024-03-08T12:14:21;29.67;;;17.13;;
33076;SDS011;67066;51.964;5.924;2024-03-08T12:16:48;32.72;;;16.08;;
33076;SDS011;67066;51.964;5.924;2024-03-08T12:19:16;30.00;;;16.63;;
33076;SDS011;67066;51.964;5.924;2024-03-08T12:21:42;31.88;;;16.58;;
33076;SDS011;67066;51.964;5.924;2024-03-08T12:24:15;27.42;;;15.57;;
33076;SDS011;67066;51.964;5.924;2024-03-08T12:26:45;29.00;;;17.08;;
33076;SDS011;67066;51.964;5.924;2024-03-08T12:31:57;32.63;;;17.95;;
33076;SDS011;67066;51.964;5.924;2024-03-08T12:34:26;32.35;;;18.10;;
33076;SDS011;67066;51.964;5.924;2024-03-08T12:36:53;26.90;;;16.40;;
33076;SDS011;67066;51.964;5.924;2024-03-08T12:39:21;28.10;;;16.95;;
33076;SDS011;67066;51.964;5.924;2024-03-08T12:41:55;31.17;;;17.17;;
33076;SDS011;67066;51.964;5.924;2024-03-08T12:44:22;32.40;;;18.88;;
33076;SDS011;67066;51.964;5.924;2024-03-08T12:46:48;31.48;;;15.70;;
33076;SDS011;67066;51.964;5.924;2024-03-08T12:49:14;37.03;;;18.73;;
33076;SDS011;67066;51.964;5.924;2024-03-08T12:51:44;27.45;;;16.58;;
33076;SDS011;67066;51.964;5.924;2024-03-08T12:54:10;37.65;;;17.55;;
33076;SDS011;67066;51.964;5.924;2024-03-08T12:56:36;32.40;;;17.20;;
33076;SDS011;67066;51.964;5.924;2024-03-08T12:59:03;31.27;;;18.02;;
33076;SDS011;67066;51.964;5.924;2024-03-08T13:01:30;30.17;;;15.68;;
33076;SDS011;67066;51.964;5.924;2024-03-08T13:03:57;30.08;;;15.68;;
33076;SDS011;67066;51.964;5.924;2024-03-08T13:06:24;29.33;;;18.30;;
33076;SDS011;67066;51.964;5.924;2024-03-08T13:08:50;32.33;;;18.30;;
33076;SDS011;67066;51.964;5.924;2024-03-08T13:11:20;31.90;;;17.65;;
33076;SDS011;67066;51.964;5.924;2024-03-08T13:13:47;32.38;;;18.90;;
33076;SDS011;67066;51.964;5.924;2024-03-08T13:16:13;26.27;;;14.13;;
33076;SDS011;67066;51.964;5.924;2024-03-08T13:18:44;30.83;;;18.15;;
33076;SDS011;67066;51.964;5.924;2024-03-08T13:21:14;41.00;;;18.95;;
33076;SDS011;67066;51.964;5.924;2024-03-08T13:23:41;33.53;;;18.33;;
33076;SDS011;67066;51.964;5.924;2024-03-08T13:26:11;31.63;;;17.30;;
33076;SDS011;67066;51.964;5.924;2024-03-08T13:28:41;32.58;;;18.73;;
33076;SDS011;67066;51.964;5.924;2024-03-08T13:31:20;30.40;;;18.38;;
33076;SDS011;67066;51.964;5.924;2024-03-08T13:33:46;29.05;;;17.33;;
33076;SDS011;67066;51.964;5.924;2024-03-08T13:36:17;28.35;;;17.55;;
33076;SDS011;67066;51.964;5.924;2024-03-08T13:38:46;33.67;;;19.90;;
33076;SDS011;67066;51.964;5.924;2024-03-08T13:41:14;28.92;;;16.00;;
33076;SDS011;67066;51.964;5.924;2024-03-08T13:43:45;32.78;;;18.42;;
33076;SDS011;67066;51.964;5.924;2024-03-08T13:46:15;33.28;;;17.33;;
33076;SDS011;67066;51.964;5.924;2024-03-08T13:48:42;27.33;;;16.42;;
33076;SDS011;67066;51.964;5.924;2024-03-08T13:51:08;27.33;;;16.40;;
33076;SDS011;67066;51.964;5.924;2024-03-08T13:53:40;41.53;;;20.63;;
33076;SDS011;67066;51.964;5.924;2024-03-08T13:56:06;29.25;;;16.48;;
33076;SDS011;67066;51.964;5.924;2024-03-08T13:58:36;32.47;;;18.13;;
33076;SDS011;67066;51.964;5.924;2024-03-08T14:01:02;29.42;;;16.52;;
33076;SDS011;67066;51.964;5.924;2024-03-08T14:03:31;35.40;;;17.52;;
33076;SDS011;67066;51.964;5.924;2024-03-08T14:05:58;27.52;;;16.83;;
33076;SDS011;67066;51.964;5.924;2024-03-08T14:08:25;32.13;;;17.58;;
33076;SDS011;67066;51.964;5.924;2024-03-08T14:10:53;31.27;;;16.55;;
33076;SDS011;67066;51.964;5.924;2024-03-08T14:13:19;30.48;;;17.73;;
33076;SDS011;67066;51.964;5.924;2024-03-08T14:15:46;29.90;;;18.50;;
33076;SDS011;67066;51.964;5.924;2024-03-08T14:18:13;28.35;;;17.52;;
33076;SDS011;67066;51.964;5.924;2024-03-08T14:20:41;30.60;;;17.73;;
33076;SDS011;67066;51.964;5.924;2024-03-08T14:23:07;33.60;;;19.10;;
33076;SDS011;67066;51.964;5.924;2024-03-08T14:25:33;36.25;;;18.65;;
33076;SDS011;67066;51.964;5.924;2024-03-08T14:27:59;28.65;;;18.70;;
33076;SDS011;67066;51.964;5.924;2024-03-08T14:30:33;26.52;;;15.98;;
33076;SDS011;67066;51.964;5.924;2024-03-08T14:33:06;28.17;;;17.48;;
33076;SDS011;67066;51.964;5.924;2024-03-08T14:35:34;37.50;;;17.75;;
33076;SDS011;67066;51.964;5.924;2024-03-08T14:38:02;36.17;;;19.27;;
33076;SDS011;67066;51.964;5.924;2024-03-08T14:40:28;33.88;;;18.15;;